createdAt,value
2018-12-14T00:01:55.125Z,21.50
2018-12-14T00:04:27.830Z,21.50
2018-12-14T00:07:00.540Z,21.50
2018-12-14T00:09:33.303Z,21.40
2018-12-14T00:12:06.195Z,21.30
2018-12-14T00:14:39.206Z,21.30
2018-12-14T00:17:12.076Z,21.20
2018-12-14T00:19:44.732Z,21.10
2018-12-14T00:22:17.748Z,21.10
2018-12-14T00:24:50.820Z,21.10
2018-12-14T00:27:25.082Z,21.00
2018-12-14T00:29:58.375Z,21.00
2018-12-14T00:32:31.367Z,20.90
2018-12-14T00:35:05.106Z,20.90
2018-12-14T00:37:38.186Z,20.80
2018-12-14T00:40:10.898Z,20.80
2018-12-14T00:42:44.626Z,20.80
2018-12-14T00:45:17.511Z,20.80
2018-12-14T00:47:51.840Z,20.70
2018-12-14T00:50:26.824Z,20.70
2018-12-14T00:53:01.811Z,20.70
2018-12-14T00:55:36.092Z,20.70
2018-12-14T00:58:10.556Z,20.60
2018-12-14T01:00:44.392Z,20.60
2018-12-14T01:03:18.434Z,20.60
2018-12-14T01:05:52.215Z,20.60
2018-12-14T01:08:26.094Z,20.50
2018-12-14T01:10:59.785Z,20.50
2018-12-14T01:13:34.336Z,20.40
2018-12-14T01:16:08.904Z,20.30
2018-12-14T01:18:42.810Z,20.30
2018-12-14T01:21:15.457Z,20.30
2018-12-14T01:23:48.125Z,20.30
2018-12-14T01:26:20.822Z,20.30
2018-12-14T01:28:53.722Z,20.30
2018-12-14T01:31:26.235Z,20.20
2018-12-14T01:33:58.988Z,20.10
2018-12-14T01:36:31.666Z,20.10
2018-12-14T01:39:04.445Z,20.00
2018-12-14T01:41:39.522Z,19.90
2018-12-14T01:44:12.176Z,19.90
2018-12-14T01:46:44.849Z,19.90
2018-12-14T01:49:17.946Z,19.90
2018-12-14T01:51:50.836Z,19.90
2018-12-14T01:54:31.356Z,19.90
2018-12-14T01:57:04.443Z,20.00
2018-12-14T01:59:37.227Z,20.00
2018-12-14T02:02:14.026Z,19.90
2018-12-14T02:04:46.769Z,20.00
2018-12-14T02:07:19.460Z,19.90
2018-12-14T02:09:52.205Z,19.90
2018-12-14T02:12:24.814Z,20.00
2018-12-14T02:14:57.729Z,20.00
2018-12-14T02:17:30.532Z,20.00
2018-12-14T02:20:03.418Z,20.00
2018-12-14T02:22:37.354Z,20.00
2018-12-14T02:25:13.926Z,20.00
2018-12-14T02:27:46.683Z,20.00
2018-12-14T02:30:28.725Z,19.90
2018-12-14T02:33:01.446Z,19.90
2018-12-14T02:35:34.237Z,19.90
2018-12-14T02:38:06.801Z,19.90
2018-12-14T02:40:39.553Z,19.80
2018-12-14T02:43:14.519Z,19.80
2018-12-14T02:45:47.149Z,19.80
2018-12-14T02:48:21.057Z,19.80
2018-12-14T02:50:53.999Z,19.80
2018-12-14T02:53:26.777Z,19.80
2018-12-14T02:55:59.568Z,19.80
2018-12-14T02:58:32.214Z,19.70
2018-12-14T03:01:05.036Z,19.70
2018-12-14T03:03:37.878Z,19.60
2018-12-14T03:06:23.094Z,19.60
2018-12-14T03:08:55.769Z,19.50
2018-12-14T03:11:28.539Z,19.50
2018-12-14T03:14:01.243Z,19.50
2018-12-14T03:16:34.046Z,19.50
2018-12-14T03:19:06.485Z,19.40
2018-12-14T03:21:39.265Z,19.40
2018-12-14T03:24:11.990Z,19.40
2018-12-14T03:26:44.804Z,19.40
2018-12-14T03:29:17.483Z,19.40
2018-12-14T03:31:51.771Z,19.30
2018-12-14T03:34:24.402Z,19.30
2018-12-14T03:36:58.112Z,19.30
2018-12-14T03:39:31.432Z,19.30
2018-12-14T03:42:04.294Z,19.30
2018-12-14T03:44:36.977Z,19.30
2018-12-14T03:47:10.380Z,19.20
2018-12-14T03:49:43.185Z,19.20
2018-12-14T03:52:16.127Z,19.20
2018-12-14T03:54:49.009Z,19.20
2018-12-14T03:57:21.925Z,19.20
2018-12-14T03:59:54.635Z,19.20
2018-12-14T04:02:27.474Z,19.20
2018-12-14T04:04:59.804Z,19.20
2018-12-14T04:07:32.486Z,19.20
2018-12-14T04:10:05.451Z,19.10
2018-12-14T04:12:41.555Z,19.10
2018-12-14T04:15:13.086Z,19.10
2018-12-14T04:17:45.868Z,19.00
2018-12-14T04:20:18.774Z,19.00
2018-12-14T04:22:51.583Z,19.00
2018-12-14T04:25:24.328Z,18.90
2018-12-14T04:27:57.149Z,18.90
2018-12-14T04:30:30.058Z,18.90
2018-12-14T04:33:02.813Z,18.90
2018-12-14T04:35:35.635Z,18.90
2018-12-14T04:38:08.390Z,18.90
2018-12-14T04:40:41.114Z,18.90
2018-12-14T04:43:13.932Z,18.90
2018-12-14T04:45:46.900Z,18.90
2018-12-14T04:48:19.659Z,18.90
2018-12-14T04:50:52.412Z,18.90
2018-12-14T04:53:25.714Z,18.90
2018-12-14T04:55:58.562Z,18.90
2018-12-14T04:58:31.574Z,18.90
2018-12-14T05:01:04.487Z,18.80
2018-12-14T05:03:37.114Z,18.80
2018-12-14T05:06:09.989Z,18.80
2018-12-14T05:08:43.090Z,18.80
2018-12-14T05:11:15.667Z,18.70
2018-12-14T05:13:48.621Z,18.70
2018-12-14T05:16:21.356Z,18.70
2018-12-14T05:18:53.990Z,18.70
2018-12-14T05:21:26.861Z,18.70
2018-12-14T05:23:59.766Z,18.70
2018-12-14T05:26:32.525Z,18.70
2018-12-14T05:29:11.436Z,18.70
2018-12-14T05:31:44.236Z,18.80
2018-12-14T05:34:17.157Z,18.80
2018-12-14T05:36:49.982Z,18.80
2018-12-14T05:39:22.785Z,18.80
2018-12-14T05:41:55.467Z,18.80
2018-12-14T05:44:28.337Z,18.80
2018-12-14T05:47:00.956Z,18.80
2018-12-14T05:49:33.621Z,18.80
2018-12-14T05:52:06.408Z,18.80
2018-12-14T05:54:39.115Z,18.80
2018-12-14T05:57:11.783Z,18.70
2018-12-14T05:59:44.641Z,18.70
2018-12-14T06:02:17.356Z,18.60
2018-12-14T06:04:50.165Z,18.50
2018-12-14T06:07:22.995Z,18.50
2018-12-14T06:09:55.703Z,18.50
2018-12-14T06:12:28.381Z,18.40
2018-12-14T06:15:01.341Z,18.40
2018-12-14T06:17:34.623Z,18.40
2018-12-14T06:20:07.537Z,18.40
2018-12-14T06:22:40.401Z,18.40
2018-12-14T06:25:13.239Z,18.40
2018-12-14T06:27:45.974Z,18.40
2018-12-14T06:30:18.892Z,18.40
2018-12-14T06:32:51.726Z,18.40
2018-12-14T06:35:24.720Z,18.40
2018-12-14T06:37:57.360Z,18.40
2018-12-14T06:40:30.006Z,18.40
2018-12-14T06:43:02.731Z,18.50
2018-12-14T06:45:35.653Z,18.50
2018-12-14T06:48:09.637Z,18.50
2018-12-14T06:50:42.424Z,18.40
2018-12-14T06:53:15.359Z,18.40
2018-12-14T06:55:49.205Z,18.40
2018-12-14T06:58:21.847Z,18.40
2018-12-14T07:00:54.552Z,18.40
2018-12-14T07:03:27.294Z,18.40
2018-12-14T07:06:00.157Z,18.40
2018-12-14T07:08:32.948Z,18.30
2018-12-14T07:11:05.807Z,18.30
2018-12-14T07:13:38.436Z,18.30
2018-12-14T07:16:11.231Z,18.30
2018-12-14T07:18:44.046Z,18.20
2018-12-14T07:21:17.363Z,18.20
2018-12-14T07:23:50.147Z,18.20
2018-12-14T07:26:23.030Z,18.20
2018-12-14T07:28:55.830Z,18.20
2018-12-14T07:31:28.789Z,18.10
2018-12-14T07:34:01.479Z,18.10
2018-12-14T07:36:34.341Z,18.10
2018-12-14T07:39:08.506Z,18.10
2018-12-14T07:41:41.187Z,18.10
2018-12-14T07:44:13.921Z,18.10
2018-12-14T07:46:46.765Z,18.10
2018-12-14T07:49:20.018Z,18.10
2018-12-14T07:51:52.883Z,18.10
2018-12-14T07:54:25.591Z,18.10
2018-12-14T07:56:58.828Z,18.10
2018-12-14T07:59:31.628Z,18.10
2018-12-14T08:02:04.400Z,18.10
2018-12-14T08:04:37.419Z,18.10
2018-12-14T08:07:10.457Z,18.10
2018-12-14T08:09:43.182Z,18.00
2018-12-14T08:12:15.880Z,18.00
2018-12-14T08:14:49.078Z,18.00
2018-12-14T08:17:21.907Z,18.00
2018-12-14T08:19:54.701Z,17.90
2018-12-14T08:22:27.506Z,17.90
2018-12-14T08:25:00.317Z,17.80
2018-12-14T08:27:33.104Z,17.80
2018-12-14T08:30:06.018Z,17.90
2018-12-14T08:32:38.878Z,17.80
2018-12-14T08:35:12.165Z,17.80
2018-12-14T08:37:45.153Z,17.80
2018-12-14T08:40:17.888Z,17.80
2018-12-14T08:42:50.574Z,17.80
2018-12-14T08:45:23.391Z,17.70
2018-12-14T08:47:56.758Z,17.70
2018-12-14T08:50:29.543Z,17.60
2018-12-14T08:53:02.681Z,17.60
2018-12-14T08:55:35.186Z,17.70
2018-12-14T08:58:08.120Z,17.70
2018-12-14T09:00:40.689Z,17.70
2018-12-14T09:03:13.367Z,17.70
2018-12-14T09:05:46.164Z,17.70
2018-12-14T09:08:18.963Z,17.80
2018-12-14T09:10:51.628Z,17.80
2018-12-14T09:13:24.535Z,17.80
2018-12-14T09:15:58.118Z,17.80
2018-12-14T09:18:30.939Z,17.80
2018-12-14T09:21:03.618Z,17.80
2018-12-14T09:23:36.331Z,17.80
2018-12-14T09:26:09.143Z,17.70
2018-12-14T09:28:42.046Z,17.70
2018-12-14T09:31:15.038Z,17.70
2018-12-14T09:33:47.659Z,17.70
2018-12-14T09:36:20.451Z,17.60
2018-12-14T09:38:53.237Z,17.60
2018-12-14T09:41:26.114Z,17.60
2018-12-14T09:43:58.908Z,17.60
2018-12-14T09:46:36.911Z,17.60
2018-12-14T09:49:06.624Z,17.60
2018-12-14T09:51:39.371Z,17.60
2018-12-14T09:54:12.062Z,17.70
2018-12-14T09:56:44.853Z,17.70
2018-12-14T09:59:17.656Z,17.70
2018-12-14T10:01:50.370Z,17.70
2018-12-14T10:04:23.284Z,17.70
2018-12-14T10:06:56.049Z,17.70
2018-12-14T10:09:28.650Z,17.70
2018-12-14T10:12:01.532Z,17.70
2018-12-14T10:14:34.403Z,17.70
2018-12-14T10:17:07.002Z,17.70
2018-12-14T10:19:39.650Z,17.60
2018-12-14T10:22:12.190Z,17.60
2018-12-14T10:24:46.234Z,17.60
2018-12-14T10:27:18.905Z,17.60
2018-12-14T10:29:51.573Z,17.50
2018-12-14T10:32:24.155Z,17.50
2018-12-14T10:34:57.080Z,17.50
2018-12-14T10:37:32.925Z,17.50
2018-12-14T10:40:05.843Z,17.50
2018-12-14T10:42:38.653Z,17.40
2018-12-14T10:45:11.334Z,17.40
2018-12-14T10:47:43.922Z,17.40
2018-12-14T10:50:16.783Z,17.40
2018-12-14T10:52:49.556Z,17.40
2018-12-14T10:55:22.287Z,17.30
2018-12-14T10:57:54.931Z,17.30
2018-12-14T11:00:32.069Z,17.20
2018-12-14T11:03:04.733Z,17.20
2018-12-14T11:05:37.389Z,17.20
2018-12-14T11:08:09.991Z,17.20
2018-12-14T11:10:42.767Z,17.20
2018-12-14T11:13:21.699Z,17.20
2018-12-14T11:15:54.434Z,17.20
2018-12-14T11:18:27.105Z,17.20
2018-12-14T11:20:59.981Z,17.20
2018-12-14T11:23:32.735Z,17.20
2018-12-14T11:26:05.620Z,17.20
2018-12-14T11:28:38.610Z,17.20
2018-12-14T11:31:11.331Z,17.20
2018-12-14T11:33:43.887Z,17.20
2018-12-14T11:36:16.737Z,17.20
2018-12-14T11:38:49.440Z,17.10
2018-12-14T11:41:22.282Z,17.10
2018-12-14T11:43:54.871Z,17.10
2018-12-14T11:46:27.726Z,17.10
2018-12-14T11:49:00.433Z,17.10
2018-12-14T11:51:33.051Z,17.10
2018-12-14T11:54:05.574Z,17.10
2018-12-14T11:58:07.317Z,17.10
2018-12-14T12:00:40.125Z,17.20
2018-12-14T12:03:14.214Z,17.20
2018-12-14T12:05:46.973Z,17.20
2018-12-14T12:08:20.106Z,17.20
2018-12-14T12:10:52.918Z,17.20
2018-12-14T12:13:25.629Z,17.30
2018-12-14T12:15:58.240Z,17.30
2018-12-14T12:18:31.455Z,17.30
2018-12-14T12:21:04.685Z,17.30
2018-12-14T12:23:37.880Z,17.30
2018-12-14T12:26:11.600Z,17.30
2018-12-14T12:28:44.542Z,17.30
2018-12-14T12:31:17.116Z,17.30
2018-12-14T12:33:51.100Z,17.40
2018-12-14T12:36:48.506Z,17.40
2018-12-14T12:39:21.295Z,17.40
2018-12-14T12:41:55.174Z,17.50
2018-12-14T12:44:33.533Z,17.60
2018-12-14T12:47:03.327Z,17.60
2018-12-14T12:49:36.424Z,17.60
2018-12-14T12:52:09.362Z,17.70
2018-12-14T12:55:06.640Z,17.70
2018-12-14T12:57:39.620Z,17.70
2018-12-14T13:00:27.457Z,17.70
2018-12-14T13:03:16.760Z,17.70
2018-12-14T13:06:15.490Z,17.80
2018-12-14T13:09:04.297Z,17.80
2018-12-14T13:11:57.243Z,17.80
2018-12-14T13:14:46.629Z,17.90
2018-12-14T13:17:36.335Z,17.80
2018-12-14T13:20:33.620Z,17.70
2018-12-14T13:23:07.106Z,17.70
2018-12-14T13:25:55.061Z,17.70
2018-12-14T13:28:34.026Z,17.80
2018-12-14T13:31:07.120Z,17.90
2018-12-14T13:33:40.411Z,17.90
2018-12-14T13:39:26.999Z,18.10
2018-12-14T13:42:00.708Z,18.10
2018-12-14T13:44:34.029Z,18.10
2018-12-14T13:47:07.598Z,18.20
2018-12-14T13:49:41.974Z,18.20
2018-12-14T13:52:15.794Z,18.20
2018-12-14T13:54:49.183Z,18.30
2018-12-14T13:57:23.530Z,18.30
2018-12-14T13:59:56.536Z,18.30
2018-12-14T14:05:13.565Z,18.50
2018-12-14T14:07:58.813Z,18.60
2018-12-14T14:10:46.369Z,18.60
2018-12-14T14:13:51.291Z,18.70
2018-12-14T14:16:25.634Z,18.80
2018-12-14T14:18:59.353Z,18.80
2018-12-14T14:25:48.341Z,18.90
2018-12-14T14:28:27.423Z,19.00
2018-12-14T14:31:01.206Z,19.10
2018-12-14T14:33:34.282Z,19.20
2018-12-14T14:36:18.960Z,19.20
2018-12-14T14:38:53.673Z,19.30
2018-12-14T14:41:27.185Z,19.30
2018-12-14T14:43:59.989Z,19.30
2018-12-14T14:46:45.585Z,19.30
2018-12-14T14:49:22.884Z,19.40
2018-12-14T14:51:56.431Z,19.40
2018-12-14T14:54:30.851Z,19.50
2018-12-14T14:57:07.558Z,19.50
2018-12-14T14:59:43.508Z,19.60
2018-12-14T15:02:16.997Z,19.60
2018-12-14T15:04:50.022Z,19.60
2018-12-14T15:07:23.127Z,19.70
2018-12-14T15:09:56.795Z,19.80
2018-12-14T15:12:30.090Z,19.80
2018-12-14T15:15:06.627Z,19.90
2018-12-14T15:17:38.599Z,19.90
2018-12-14T15:20:13.757Z,20.00
2018-12-14T15:22:48.135Z,20.00
2018-12-14T15:25:22.329Z,20.10
2018-12-14T15:27:56.013Z,20.20
2018-12-14T15:30:31.392Z,20.30
2018-12-14T15:33:05.947Z,20.30
2018-12-14T15:35:45.133Z,20.40
2018-12-14T15:38:35.665Z,20.40
2018-12-14T15:41:08.788Z,20.40
2018-12-14T15:43:45.725Z,20.50
2018-12-14T15:46:29.761Z,20.50
2018-12-14T15:49:15.168Z,20.60
2018-12-14T15:51:48.265Z,20.70
2018-12-14T15:54:28.202Z,20.80
2018-12-14T16:00:12.752Z,21.00
2018-12-14T16:02:45.931Z,21.00
2018-12-14T16:05:20.075Z,21.10
2018-12-14T16:07:57.221Z,21.10
2018-12-14T16:10:33.907Z,21.20
2018-12-14T16:13:30.029Z,21.20
2018-12-14T16:19:08.044Z,21.40
2018-12-14T16:21:53.946Z,21.40
2018-12-14T16:38:14.761Z,21.80
2018-12-14T16:40:55.301Z,21.80
2018-12-14T16:43:35.777Z,21.90
2018-12-14T16:46:24.688Z,22.00
2018-12-14T16:49:00.259Z,22.10
2018-12-14T16:51:33.262Z,22.20
2018-12-14T16:54:08.691Z,22.20
2018-12-14T16:56:59.003Z,22.30
2018-12-14T16:59:34.475Z,22.40
2018-12-14T17:02:15.827Z,22.40
2018-12-14T17:05:05.240Z,22.50
2018-12-14T17:07:59.620Z,22.60
2018-12-14T17:10:32.885Z,22.60
2018-12-14T17:13:08.556Z,22.70
2018-12-14T17:15:49.423Z,22.80
2018-12-14T17:18:24.182Z,22.90
2018-12-14T17:20:58.083Z,22.90
2018-12-14T17:23:31.357Z,23.00
2018-12-14T17:26:20.456Z,23.00
2018-12-14T17:28:53.543Z,23.10
2018-12-14T17:31:26.718Z,23.10
2018-12-14T17:34:00.681Z,23.20
2018-12-14T17:36:39.509Z,23.30
2018-12-14T17:39:15.792Z,23.20
2018-12-14T17:41:48.796Z,23.30
2018-12-14T17:44:24.061Z,23.40
2018-12-14T17:49:54.334Z,23.50
2018-12-14T17:52:27.597Z,23.70
2018-12-14T17:55:04.288Z,23.90
2018-12-14T17:57:38.178Z,24.00
2018-12-14T18:00:11.466Z,24.10
2018-12-14T18:02:45.085Z,24.20
2018-12-14T18:05:19.557Z,24.20
2018-12-14T18:07:53.325Z,24.30
2018-12-14T18:10:28.046Z,24.30
2018-12-14T18:13:03.710Z,24.40
2018-12-14T18:18:36.660Z,24.60
2018-12-14T18:21:11.264Z,24.60
2018-12-14T18:23:58.109Z,24.70
2018-12-14T18:26:35.035Z,24.80
2018-12-14T18:29:08.208Z,24.90
2018-12-14T18:31:47.163Z,25.00
2018-12-14T18:34:20.135Z,25.10
2018-12-14T18:36:54.855Z,25.20
2018-12-14T18:39:27.909Z,25.30
2018-12-14T18:42:02.181Z,25.30
2018-12-14T18:44:35.034Z,25.30
2018-12-14T18:47:11.417Z,25.20
2018-12-14T18:49:51.729Z,25.30
2018-12-14T18:52:30.773Z,25.40
2018-12-14T18:55:31.905Z,25.50
2018-12-14T18:58:05.821Z,25.60
2018-12-14T19:00:39.035Z,25.60
2018-12-14T19:03:12.224Z,25.60
2018-12-14T19:05:46.267Z,25.60
2018-12-14T19:08:18.973Z,25.50
2018-12-14T19:10:52.333Z,25.40
2018-12-14T19:13:26.893Z,25.10
2018-12-14T19:15:59.891Z,25.00
2018-12-14T19:18:34.225Z,24.90
2018-12-14T19:21:08.728Z,24.70
2018-12-14T19:23:41.466Z,24.70
2018-12-14T19:26:14.266Z,24.60
2018-12-14T19:28:46.897Z,24.40
2018-12-14T19:31:19.715Z,24.40
2018-12-14T19:33:52.442Z,24.20
2018-12-14T19:36:46.229Z,24.30
2018-12-14T19:42:14.975Z,24.50
2018-12-14T19:44:47.777Z,24.80
2018-12-14T19:47:20.776Z,25.00
2018-12-14T19:49:53.586Z,25.10
2018-12-14T19:52:26.327Z,25.40
2018-12-14T19:54:59.013Z,25.50
2018-12-14T19:57:42.813Z,25.70
2018-12-14T20:00:18.387Z,25.80
2018-12-14T20:02:51.160Z,26.00
2018-12-14T20:05:23.943Z,26.00
2018-12-14T20:07:57.527Z,26.10
2018-12-14T20:10:30.169Z,26.20
2018-12-14T20:13:02.894Z,26.40
2018-12-14T20:15:36.643Z,26.60
2018-12-14T20:18:09.417Z,26.80
2018-12-14T20:20:42.084Z,27.00
2018-12-14T20:23:14.807Z,27.20
2018-12-14T20:25:48.894Z,27.30
2018-12-14T20:28:21.721Z,27.40
2018-12-14T20:30:54.419Z,27.50
2018-12-14T20:33:27.197Z,27.50
2018-12-14T20:36:00.979Z,27.50
2018-12-14T20:38:35.654Z,27.60
2018-12-14T20:41:08.263Z,27.70
2018-12-14T20:43:42.113Z,27.80
2018-12-14T20:46:19.472Z,27.70
2018-12-14T20:48:52.397Z,27.60
2018-12-14T20:51:25.051Z,27.50
2018-12-14T20:53:57.750Z,27.40
2018-12-14T20:56:32.636Z,27.30
2018-12-14T20:59:06.375Z,27.30
2018-12-14T21:04:20.291Z,27.20
2018-12-14T21:06:57.004Z,26.90
2018-12-14T21:09:29.889Z,26.60
2018-12-14T21:12:05.077Z,26.40
2018-12-14T21:14:38.390Z,26.40
2018-12-14T21:17:11.037Z,26.40
2018-12-14T21:19:43.803Z,26.50
2018-12-14T21:22:16.809Z,26.60
2018-12-14T21:24:49.585Z,26.70
2018-12-14T21:27:22.252Z,26.80
2018-12-14T21:29:54.968Z,26.90
2018-12-14T21:32:27.782Z,27.00
2018-12-14T21:35:00.552Z,27.00
2018-12-14T21:37:33.249Z,27.10
2018-12-14T21:40:07.381Z,27.10
2018-12-14T21:42:40.024Z,27.10
2018-12-14T21:45:13.148Z,27.10
2018-12-14T21:47:45.994Z,27.10
2018-12-14T21:50:21.161Z,27.20
2018-12-14T21:52:54.935Z,26.90
2018-12-14T21:55:28.868Z,26.80
2018-12-14T21:58:01.791Z,26.80
2018-12-14T22:00:34.691Z,26.60
2018-12-14T22:03:07.646Z,26.30
2018-12-14T22:05:42.598Z,26.00
2018-12-14T22:08:15.381Z,25.60
2018-12-14T22:10:48.630Z,25.30
2018-12-14T22:13:21.962Z,25.00
2018-12-14T22:15:55.287Z,24.80
2018-12-14T22:18:28.222Z,24.50
2018-12-14T22:21:02.196Z,24.20
2018-12-14T22:23:34.963Z,23.90
2018-12-14T22:26:08.891Z,23.70
2018-12-14T22:28:41.566Z,23.40
2018-12-14T22:31:14.280Z,23.00
2018-12-14T22:33:46.921Z,22.70
2018-12-14T22:36:19.698Z,22.60
2018-12-14T22:38:52.337Z,22.50
2018-12-14T22:41:25.065Z,22.50
2018-12-14T22:43:57.812Z,22.50
2018-12-14T22:46:31.624Z,22.50
2018-12-14T22:49:04.346Z,22.30
2018-12-14T22:51:37.402Z,22.20
2018-12-14T22:54:10.082Z,22.20
2018-12-14T22:56:43.877Z,22.20
2018-12-14T22:59:16.615Z,22.20
2018-12-14T23:01:49.499Z,22.20
2018-12-14T23:04:22.219Z,22.20
2018-12-14T23:06:55.031Z,22.10
2018-12-14T23:09:27.802Z,22.00
2018-12-14T23:12:00.736Z,21.90
2018-12-14T23:14:33.514Z,21.80
2018-12-14T23:17:06.390Z,21.80
2018-12-14T23:19:39.014Z,21.90
2018-12-14T23:22:11.822Z,21.90
2018-12-14T23:24:44.506Z,21.90
2018-12-14T23:27:17.293Z,21.80
2018-12-14T23:29:51.174Z,21.70
2018-12-14T23:32:24.037Z,21.70
2018-12-14T23:34:56.930Z,21.60
2018-12-14T23:37:35.664Z,21.60
2018-12-14T23:40:08.411Z,21.60
2018-12-14T23:42:41.261Z,21.50
2018-12-14T23:45:14.155Z,21.50
2018-12-14T23:47:46.909Z,21.40
2018-12-14T23:50:19.584Z,21.30
2018-12-14T23:52:52.420Z,21.20
2018-12-14T23:55:25.140Z,21.20
2018-12-14T23:57:57.874Z,21.10
